createdAt,value
2022-08-09T00:04:00.837Z,20.68
2022-08-09T00:09:01.613Z,20.62
2022-08-09T00:14:09.686Z,20.52
2022-08-09T00:19:18.448Z,20.44
2022-08-09T00:24:24.383Z,20.34
2022-08-09T00:30:10.396Z,20.32
2022-08-09T00:34:37.827Z,20.17
2022-08-09T00:40:09.405Z,20.13
2022-08-09T00:44:52.130Z,20.14
2022-08-09T00:49:59.855Z,20.03
2022-08-09T00:55:07.854Z,19.95
2022-08-09T01:00:21.080Z,19.80
2022-08-09T01:05:51.566Z,19.87
2022-08-09T01:10:57.760Z,19.97
2022-08-09T01:16:06.382Z,19.97
2022-08-09T01:21:24.843Z,19.97
2022-08-09T01:26:46.341Z,20.01
2022-08-09T01:32:29.868Z,19.87
2022-08-09T01:37:03.432Z,19.80
2022-08-09T01:42:11.125Z,19.89
2022-08-09T01:47:18.406Z,19.85
2022-08-09T01:52:26.094Z,19.88
2022-08-09T01:57:44.217Z,19.87
2022-08-09T02:02:49.982Z,19.84
2022-08-09T02:08:40.946Z,19.82
2022-08-09T02:13:17.429Z,19.68
2022-08-09T02:18:27.114Z,19.52
2022-08-09T02:23:43.241Z,19.48
2022-08-09T02:28:56.277Z,19.45
2022-08-09T02:34:11.117Z,19.39
2022-08-09T02:39:33.754Z,19.26
2022-08-09T02:44:40.377Z,19.15
2022-08-09T02:50:01.124Z,19.07
2022-08-09T02:55:20.265Z,19.00
2022-08-09T03:00:25.466Z,18.95
2022-08-09T03:05:22.519Z,18.89
2022-08-09T03:10:30.154Z,18.86
2022-08-09T03:15:40.513Z,18.82
2022-08-09T03:20:45.139Z,18.82
2022-08-09T03:25:57.809Z,18.81
2022-08-09T03:31:00.565Z,18.75
2022-08-09T03:36:12.847Z,18.68
2022-08-09T03:41:18.376Z,18.63
2022-08-09T03:46:27.409Z,18.50
2022-08-09T03:51:55.924Z,18.48
2022-08-09T03:56:41.975Z,18.50
2022-08-09T04:01:50.377Z,18.43
2022-08-09T04:06:57.947Z,18.46
2022-08-09T04:12:30.422Z,18.48
2022-08-09T04:17:20.148Z,18.48
2022-08-09T04:22:28.015Z,18.52
2022-08-09T04:27:34.039Z,18.57
2022-08-09T04:32:45.836Z,18.60
2022-08-09T04:37:49.989Z,18.57
2022-08-09T04:42:55.449Z,18.65
2022-08-09T04:48:09.840Z,18.79
2022-08-09T04:53:11.668Z,18.89
2022-08-09T04:58:17.969Z,18.98
2022-08-09T05:03:40.125Z,19.06
2022-08-09T05:08:33.392Z,19.08
2022-08-09T05:13:40.831Z,19.07
2022-08-09T05:18:58.625Z,19.12
2022-08-09T05:24:01.443Z,19.20
2022-08-09T05:29:03.336Z,19.20
2022-08-09T05:34:09.550Z,19.44
2022-08-09T05:39:28.230Z,19.60
2022-08-09T05:44:29.185Z,19.77
2022-08-09T05:50:23.870Z,19.88
2022-08-09T05:54:39.654Z,19.98
2022-08-09T05:59:46.364Z,20.24
2022-08-09T06:04:52.017Z,20.38
2022-08-09T06:10:02.284Z,20.49
2022-08-09T06:15:10.084Z,20.68
2022-08-09T06:20:18.265Z,20.75
2022-08-09T06:25:23.356Z,20.82
2022-08-09T06:30:29.222Z,20.94
2022-08-09T06:35:56.482Z,21.00
2022-08-09T06:40:42.856Z,21.07
2022-08-09T06:46:06.056Z,21.19
2022-08-09T06:50:55.720Z,21.37
2022-08-09T06:56:03.324Z,21.43
2022-08-09T07:01:08.898Z,21.40
2022-08-09T07:06:14.426Z,21.47
2022-08-09T07:11:23.495Z,21.57
2022-08-09T07:16:42.347Z,21.70
2022-08-09T07:21:34.631Z,21.95
2022-08-09T07:26:42.141Z,22.17
2022-08-09T07:31:49.453Z,22.27
2022-08-09T07:36:55.189Z,22.04
2022-08-09T07:42:00.679Z,22.13
2022-08-09T07:47:07.882Z,22.33
2022-08-09T07:52:17.795Z,22.50
2022-08-09T07:57:22.417Z,22.72
2022-08-09T08:02:29.779Z,22.89
2022-08-09T08:08:43.002Z,22.85
2022-08-09T08:12:46.967Z,22.95
2022-08-09T08:17:58.590Z,23.26
2022-08-09T08:23:03.865Z,23.27
2022-08-09T08:28:09.807Z,23.34
2022-08-09T08:33:23.066Z,23.42
2022-08-09T08:38:24.865Z,23.47
2022-08-09T08:43:31.216Z,23.62
2022-08-09T08:48:38.060Z,23.58
2022-08-09T08:54:03.246Z,23.57
2022-08-09T08:58:53.649Z,23.47
2022-08-09T09:04:01.133Z,23.66
2022-08-09T09:09:21.214Z,23.75
2022-08-09T09:14:18.631Z,23.71
2022-08-09T09:19:40.931Z,23.80
2022-08-09T09:24:34.565Z,23.78
2022-08-09T09:30:14.312Z,23.93
2022-08-09T09:35:15.955Z,23.93
2022-08-09T09:40:20.776Z,24.00
2022-08-09T09:45:29.475Z,24.03
2022-08-09T09:50:51.364Z,24.09
2022-08-09T09:56:04.147Z,24.12
2022-08-09T10:01:37.869Z,24.34
2022-08-09T10:06:19.893Z,24.15
2022-08-09T10:12:00.778Z,24.14
2022-08-09T10:16:57.200Z,24.34
2022-08-09T10:21:50.327Z,24.38
2022-08-09T10:26:57.376Z,24.25
2022-08-09T10:37:13.856Z,24.47
2022-08-09T10:42:19.148Z,24.70
2022-08-09T10:48:17.164Z,24.79
2022-08-09T10:53:02.081Z,24.92
2022-08-09T10:58:10.853Z,25.07
2022-08-09T11:03:27.851Z,24.89
2022-08-09T11:08:47.898Z,25.14
2022-08-09T11:14:11.325Z,25.26
2022-08-09T11:19:21.653Z,25.33
2022-08-09T11:24:30.388Z,25.38
2022-08-09T11:30:05.595Z,25.62
2022-08-09T11:35:09.505Z,25.62
2022-08-09T11:40:19.597Z,25.79
2022-08-09T11:45:42.749Z,25.88
2022-08-09T11:52:56.432Z,25.87
2022-08-09T11:56:21.095Z,25.96
2022-08-09T12:02:16.975Z,25.78
2022-08-09T12:06:56.449Z,25.68
2022-08-09T12:12:13.159Z,26.78
2022-08-09T12:17:27.998Z,26.16
2022-08-09T12:22:26.130Z,25.79
2022-08-09T12:29:13.475Z,25.77
2022-08-09T12:32:40.740Z,25.64
2022-08-09T12:37:51.655Z,25.79
2022-08-09T12:42:54.557Z,25.87
2022-08-09T12:48:00.355Z,25.88
2022-08-09T12:53:17.911Z,25.83
2022-08-09T12:58:24.360Z,25.76
2022-08-09T13:03:57.255Z,25.83
2022-08-09T13:08:40.823Z,25.91
2022-08-09T13:14:41.637Z,25.93
2022-08-09T13:18:54.780Z,26.03
2022-08-09T13:24:42.392Z,25.97
2022-08-09T13:29:18.476Z,26.01
2022-08-09T13:34:24.490Z,25.97
2022-08-09T13:41:50.541Z,25.94
2022-08-09T13:44:42.116Z,25.93
2022-08-09T13:49:56.459Z,25.94
2022-08-09T13:54:59.249Z,26.11
2022-08-09T14:00:08.029Z,26.19
2022-08-09T14:05:57.201Z,26.30
2022-08-09T14:10:37.748Z,26.15
2022-08-09T14:16:10.628Z,26.27
2022-08-09T14:20:38.493Z,26.38
2022-08-09T14:25:44.754Z,26.45
2022-08-09T14:30:52.269Z,26.40
2022-08-09T14:36:20.304Z,26.57
2022-08-09T14:41:24.009Z,26.51
2022-08-09T14:46:54.413Z,26.51
2022-08-09T14:51:24.043Z,26.50
2022-08-09T14:56:30.331Z,26.50
2022-08-09T15:01:35.936Z,26.45
2022-08-09T15:06:41.562Z,26.35
2022-08-09T15:11:51.020Z,26.43
2022-08-09T15:16:56.685Z,26.37
2022-08-09T15:22:03.081Z,26.46
2022-08-09T15:27:08.737Z,26.54
2022-08-09T15:32:29.515Z,26.45
2022-08-09T15:37:37.047Z,26.50
2022-08-09T15:42:44.611Z,26.46
2022-08-09T15:48:01.861Z,26.52
2022-08-09T15:53:06.649Z,26.53
2022-08-09T15:58:05.060Z,26.50
2022-08-09T16:03:13.911Z,26.59
2022-08-09T16:08:30.362Z,26.75
2022-08-09T16:14:04.895Z,27.41
2022-08-09T16:18:35.820Z,28.09
2022-08-09T16:23:44.428Z,28.05
2022-08-09T16:28:49.007Z,27.55
2022-08-09T16:33:56.299Z,27.20
2022-08-09T16:39:04.376Z,26.99
2022-08-09T16:44:13.352Z,27.00
2022-08-09T16:50:26.815Z,26.94
2022-08-09T16:54:33.979Z,26.83
2022-08-09T16:59:34.996Z,26.73
2022-08-09T17:04:41.418Z,26.82
2022-08-09T17:09:47.967Z,26.86
2022-08-09T17:14:57.685Z,27.01
2022-08-09T17:20:32.341Z,26.86
2022-08-09T17:25:11.641Z,26.52
2022-08-09T17:30:20.422Z,26.21
2022-08-09T17:35:25.399Z,26.02
2022-08-09T17:40:32.678Z,25.81
2022-08-09T17:46:04.184Z,25.51
2022-08-09T17:50:56.010Z,25.26
2022-08-09T17:55:59.661Z,25.17
2022-08-09T18:01:01.010Z,24.99
2022-08-09T18:06:14.841Z,24.84
2022-08-09T18:11:16.305Z,24.71
2022-08-09T18:16:30.205Z,24.65
2022-08-09T18:21:31.897Z,24.48
2022-08-09T18:26:46.385Z,24.35
2022-08-09T18:31:51.193Z,24.12
2022-08-09T18:36:54.517Z,23.95
2022-08-09T18:42:01.247Z,23.92
2022-08-09T18:47:12.668Z,23.82
2022-08-09T18:52:24.639Z,23.70
2022-08-09T18:57:23.961Z,23.55
2022-08-09T19:02:32.655Z,23.50
2022-08-09T19:07:38.359Z,23.39
2022-08-09T19:12:50.217Z,23.26
2022-08-09T19:17:55.043Z,23.17
2022-08-09T19:22:59.131Z,23.01
2022-08-09T19:28:07.769Z,22.83
2022-08-09T19:33:19.671Z,22.65
2022-08-09T19:38:22.270Z,22.38
2022-08-09T19:44:00.616Z,22.20
2022-08-09T19:49:01.720Z,22.10
2022-08-09T19:53:45.485Z,21.96
2022-08-09T19:59:18.421Z,21.87
2022-08-09T20:04:11.124Z,21.80
2022-08-09T20:09:04.972Z,21.64
2022-08-09T20:14:15.141Z,21.60
2022-08-09T20:19:43.002Z,21.47
2022-08-09T20:24:33.852Z,21.31
2022-08-09T20:29:38.750Z,21.20
2022-08-09T20:34:44.672Z,21.16
2022-08-09T20:40:15.320Z,21.15
2022-08-09T20:45:56.380Z,21.65
2022-08-09T20:50:08.306Z,21.26
2022-08-09T20:55:14.355Z,21.15
2022-08-09T21:00:31.044Z,20.99
2022-08-09T21:05:51.262Z,20.78
2022-08-09T21:10:36.134Z,20.61
2022-08-09T21:15:54.284Z,20.58
2022-08-09T21:20:50.273Z,20.53
2022-08-09T21:25:59.655Z,20.37
2022-08-09T21:31:16.326Z,20.33
2022-08-09T21:36:14.997Z,20.27
2022-08-09T21:41:22.312Z,20.20
2022-08-09T21:46:29.512Z,20.11
2022-08-09T21:51:43.757Z,20.09
2022-08-09T21:56:54.251Z,20.03
2022-08-09T22:02:00.713Z,20.02
2022-08-09T22:07:02.132Z,19.97
2022-08-09T22:12:18.011Z,19.94
2022-08-09T22:17:14.908Z,19.88
2022-08-09T22:22:22.214Z,19.79
2022-08-09T22:27:28.066Z,19.70
2022-08-09T22:32:35.362Z,19.63
2022-08-09T22:37:42.095Z,19.50
2022-08-09T22:42:47.830Z,19.41
2022-08-09T22:48:16.876Z,19.37
2022-08-09T22:53:03.224Z,19.34
2022-08-09T22:58:09.323Z,19.28
2022-08-09T23:03:16.846Z,19.22
2022-08-09T23:08:41.959Z,19.15
2022-08-09T23:13:52.648Z,19.06
2022-08-09T23:18:58.130Z,18.94
2022-08-09T23:24:06.301Z,18.87
2022-08-09T23:29:14.011Z,18.86
2022-08-09T23:34:19.746Z,18.82
2022-08-09T23:39:25.373Z,18.81
2022-08-09T23:44:30.956Z,18.80
2022-08-09T23:49:36.518Z,18.71
2022-08-09T23:54:44.399Z,18.67
